createdAt,value
2023-01-26T00:01:53.656Z,74.00
2023-01-26T00:04:21.897Z,76.77
2023-01-26T00:06:50.658Z,74.37
2023-01-26T00:09:18.667Z,75.40
2023-01-26T00:11:46.760Z,74.93
2023-01-26T00:14:14.828Z,73.27
2023-01-26T00:16:42.921Z,73.87
2023-01-26T00:19:12.325Z,76.17
2023-01-26T00:21:40.388Z,76.83
2023-01-26T00:24:08.895Z,76.37
2023-01-26T00:26:36.953Z,78.30
2023-01-26T00:29:04.992Z,75.50
2023-01-26T00:31:33.088Z,77.17
2023-01-26T00:34:01.170Z,76.27
2023-01-26T00:36:30.459Z,76.10
2023-01-26T00:38:58.589Z,73.90
2023-01-26T00:41:44.370Z,74.77
2023-01-26T00:44:12.449Z,78.23
2023-01-26T00:46:40.673Z,81.97
2023-01-26T00:49:08.819Z,81.53
2023-01-26T00:51:38.256Z,82.20
2023-01-26T00:54:06.360Z,77.83
2023-01-26T00:56:34.429Z,78.03
2023-01-26T00:59:02.533Z,80.53
2023-01-26T01:01:30.656Z,76.57
2023-01-26T01:03:59.032Z,81.40
2023-01-26T01:06:27.172Z,76.40
2023-01-26T01:08:56.568Z,79.50
2023-01-26T01:11:24.992Z,77.60
2023-01-26T01:13:53.043Z,76.50
2023-01-26T01:16:21.242Z,78.97
2023-01-26T01:18:49.411Z,77.37
2023-01-26T01:21:18.660Z,77.50
2023-01-26T01:23:47.163Z,80.33
2023-01-26T01:26:17.494Z,78.70
2023-01-26T01:28:45.746Z,82.70
2023-01-26T01:31:15.418Z,79.63
2023-01-26T01:33:44.247Z,79.90
2023-01-26T01:36:14.210Z,78.73
2023-01-26T01:38:42.940Z,79.20
2023-01-26T01:41:11.993Z,78.30
2023-01-26T01:43:42.194Z,77.40
2023-01-26T01:46:18.082Z,77.60
2023-01-26T01:48:54.153Z,78.43
2023-01-26T01:51:28.848Z,79.83
2023-01-26T01:53:59.554Z,78.17
2023-01-26T01:56:30.621Z,76.77
2023-01-26T01:59:01.919Z,78.63
2023-01-26T02:01:30.543Z,81.57
2023-01-26T02:04:02.079Z,76.33
2023-01-26T02:06:35.279Z,77.90
2023-01-26T02:09:05.539Z,79.20
2023-01-26T02:11:38.303Z,78.77
2023-01-26T02:14:10.688Z,83.60
2023-01-26T02:16:39.977Z,81.00
2023-01-26T02:19:15.697Z,82.23
2023-01-26T02:21:46.046Z,83.03
2023-01-26T02:24:22.947Z,85.30
2023-01-26T02:26:54.631Z,79.57
2023-01-26T02:29:23.795Z,83.57
2023-01-26T02:31:53.545Z,80.10
2023-01-26T02:34:24.143Z,79.77
2023-01-26T02:36:59.463Z,82.93
2023-01-26T02:39:42.199Z,82.40
2023-01-26T02:42:29.691Z,85.57
2023-01-26T02:44:58.102Z,83.13
2023-01-26T02:47:26.227Z,81.97
2023-01-26T02:49:53.336Z,84.70
2023-01-26T02:52:23.154Z,85.10
2023-01-26T02:55:08.766Z,85.20
2023-01-26T02:57:38.368Z,81.20
2023-01-26T03:00:10.911Z,85.13
2023-01-26T03:02:39.677Z,83.67
2023-01-26T03:05:08.393Z,82.00
2023-01-26T03:07:36.536Z,81.70
2023-01-26T03:10:05.424Z,81.90
2023-01-26T03:12:33.664Z,83.10
2023-01-26T03:15:20.441Z,82.20
2023-01-26T03:17:48.774Z,83.57
2023-01-26T03:20:34.853Z,83.93
2023-01-26T03:23:20.339Z,86.87
2023-01-26T03:26:05.772Z,86.00
2023-01-26T03:28:33.785Z,88.00
2023-01-26T03:31:08.229Z,86.20
2023-01-26T03:33:36.285Z,87.23
2023-01-26T03:36:04.346Z,87.17
2023-01-26T03:38:32.450Z,86.47
2023-01-26T03:41:17.820Z,87.20
2023-01-26T03:44:03.225Z,87.90
2023-01-26T03:46:50.106Z,87.30
2023-01-26T03:49:35.875Z,89.37
2023-01-26T03:52:21.360Z,89.33
2023-01-26T03:55:06.844Z,89.07
2023-01-26T03:57:34.942Z,88.67
2023-01-26T04:00:03.165Z,86.87
2023-01-26T04:02:50.562Z,87.50
2023-01-26T04:05:35.920Z,86.93
2023-01-26T04:08:27.074Z,89.00
2023-01-26T04:10:55.941Z,88.23
2023-01-26T04:13:43.034Z,86.40
2023-01-26T04:16:29.365Z,86.40
2023-01-26T04:19:16.403Z,89.43
2023-01-26T04:21:44.428Z,88.50
2023-01-26T04:24:16.750Z,90.83
2023-01-26T04:26:45.492Z,90.43
2023-01-26T04:29:14.897Z,90.30
2023-01-26T04:31:44.198Z,92.07
2023-01-26T04:34:14.961Z,90.03
2023-01-26T04:36:43.559Z,89.97
2023-01-26T04:39:12.107Z,90.23
2023-01-26T04:41:42.266Z,89.87
2023-01-26T04:44:10.594Z,87.20
2023-01-26T04:46:38.818Z,90.30
2023-01-26T04:49:06.854Z,89.23
2023-01-26T04:51:36.750Z,90.90
2023-01-26T04:54:05.044Z,92.57
2023-01-26T04:56:34.634Z,93.37
2023-01-26T04:59:05.150Z,87.67
2023-01-26T05:01:33.649Z,84.70
2023-01-26T05:04:02.643Z,94.73
2023-01-26T05:06:30.722Z,90.97
2023-01-26T05:09:00.259Z,89.10
2023-01-26T05:11:28.373Z,92.80
2023-01-26T05:13:56.542Z,92.10
2023-01-26T05:16:25.212Z,89.10
2023-01-26T05:18:54.261Z,89.50
2023-01-26T05:21:24.602Z,87.27
2023-01-26T05:23:52.840Z,88.87
2023-01-26T05:26:22.324Z,90.53
2023-01-26T05:28:50.413Z,91.17
2023-01-26T05:31:18.528Z,91.10
2023-01-26T05:33:46.556Z,91.77
2023-01-26T05:36:14.448Z,87.37
2023-01-26T05:38:43.549Z,90.10
2023-01-26T05:41:11.578Z,89.20
2023-01-26T05:43:41.077Z,90.83
2023-01-26T05:46:09.225Z,87.87
2023-01-26T05:48:37.365Z,87.23
2023-01-26T05:51:05.604Z,85.67
2023-01-26T05:53:33.681Z,88.73
2023-01-26T05:56:01.813Z,88.80
2023-01-26T05:58:29.840Z,92.13
2023-01-26T06:00:59.261Z,93.47
2023-01-26T06:03:27.312Z,88.33
2023-01-26T06:05:55.791Z,90.70
2023-01-26T06:08:23.845Z,92.77
2023-01-26T06:10:51.949Z,86.10
2023-01-26T06:13:20.040Z,86.87
2023-01-26T06:15:48.087Z,87.73
2023-01-26T06:18:17.521Z,85.10
2023-01-26T06:20:45.607Z,83.50
2023-01-26T06:23:13.797Z,82.87
2023-01-26T06:25:42.055Z,82.73
2023-01-26T06:28:10.184Z,84.23
2023-01-26T06:30:38.421Z,86.93
2023-01-26T06:33:07.572Z,86.00
2023-01-26T06:35:37.163Z,84.83
2023-01-26T06:38:05.397Z,81.07
2023-01-26T06:40:33.449Z,81.70
2023-01-26T06:43:01.433Z,84.77
2023-01-26T06:45:29.488Z,83.63
2023-01-26T06:47:57.595Z,83.70
2023-01-26T06:50:32.481Z,82.77
2023-01-26T06:53:05.616Z,85.57
2023-01-26T06:55:37.237Z,88.50
2023-01-26T06:58:05.319Z,85.40
2023-01-26T07:00:33.433Z,83.50
2023-01-26T07:03:01.559Z,86.93
2023-01-26T07:05:29.690Z,89.70
2023-01-26T07:08:00.312Z,86.57
2023-01-26T07:10:29.749Z,85.20
2023-01-26T07:12:57.798Z,83.27
2023-01-26T07:15:25.896Z,84.10
2023-01-26T07:17:54.644Z,88.10
2023-01-26T07:20:22.902Z,84.00
2023-01-26T07:22:51.183Z,91.45
2023-01-26T07:25:19.575Z,87.03
2023-01-26T07:27:49.099Z,86.90
2023-01-26T07:30:17.984Z,94.23
2023-01-26T07:32:46.074Z,94.13
2023-01-26T07:35:14.132Z,93.10
2023-01-26T07:37:42.294Z,95.97
2023-01-26T07:40:12.025Z,95.70
2023-01-26T07:42:40.301Z,92.50
2023-01-26T07:45:10.612Z,93.97
2023-01-26T07:47:38.779Z,93.10
2023-01-26T07:50:07.864Z,92.20
2023-01-26T07:52:35.952Z,91.13
2023-01-26T07:55:04.141Z,91.53
2023-01-26T07:57:33.919Z,94.93
2023-01-26T08:00:02.004Z,91.43
2023-01-26T08:02:31.478Z,94.37
2023-01-26T08:05:00.163Z,92.50
2023-01-26T08:07:28.269Z,95.93
2023-01-26T08:09:56.327Z,97.50
2023-01-26T08:12:24.446Z,93.87
2023-01-26T08:14:52.651Z,95.73
2023-01-26T08:17:20.990Z,93.30
2023-01-26T08:19:50.445Z,99.80
2023-01-26T08:22:18.540Z,95.57
2023-01-26T08:24:46.602Z,89.37
2023-01-26T08:27:16.129Z,93.60
2023-01-26T08:29:44.208Z,94.80
2023-01-26T08:32:12.350Z,89.97
2023-01-26T08:34:40.444Z,92.80
2023-01-26T08:37:09.869Z,79.53
2023-01-26T08:39:37.943Z,81.40
2023-01-26T08:42:06.067Z,84.53
2023-01-26T08:44:34.192Z,82.33
2023-01-26T08:47:02.229Z,81.17
2023-01-26T08:49:30.315Z,81.40
2023-01-26T08:51:58.407Z,85.43
2023-01-26T08:54:28.721Z,91.37
2023-01-26T08:56:56.778Z,88.87
2023-01-26T08:59:24.901Z,90.60
2023-01-26T09:01:52.942Z,92.37
2023-01-26T09:04:21.097Z,88.13
2023-01-26T09:06:49.165Z,89.57
2023-01-26T09:09:17.241Z,94.87
2023-01-26T09:11:46.683Z,93.93
2023-01-26T09:14:14.789Z,92.07
2023-01-26T09:16:42.951Z,93.20
2023-01-26T09:19:10.932Z,99.70
2023-01-26T09:21:39.041Z,100.17
2023-01-26T09:24:07.784Z,100.63
2023-01-26T09:26:36.119Z,103.27
2023-01-26T09:29:05.530Z,103.30
2023-01-26T09:31:33.783Z,107.10
2023-01-26T09:34:01.959Z,105.33
2023-01-26T09:36:30.078Z,107.40
2023-01-26T09:38:58.122Z,109.13
2023-01-26T09:41:43.711Z,108.07
2023-01-26T09:44:17.581Z,105.07
2023-01-26T09:47:00.528Z,109.63
2023-01-26T09:49:43.991Z,110.73
2023-01-26T09:52:19.125Z,112.70
2023-01-26T09:54:50.863Z,110.47
2023-01-26T09:57:21.939Z,113.10
2023-01-26T09:59:57.997Z,114.40
2023-01-26T10:02:39.043Z,113.97
2023-01-26T10:05:16.262Z,117.47
2023-01-26T10:07:45.644Z,115.90
2023-01-26T10:10:20.113Z,115.43
2023-01-26T10:12:50.677Z,112.13
2023-01-26T10:15:30.751Z,115.50
2023-01-26T10:18:01.637Z,114.90
2023-01-26T10:20:32.652Z,117.67
2023-01-26T10:23:05.375Z,115.13
2023-01-26T10:25:36.305Z,115.77
2023-01-26T10:28:14.642Z,118.37
2023-01-26T10:30:47.144Z,111.00
2023-01-26T10:33:18.318Z,114.07
2023-01-26T10:35:46.521Z,115.70
2023-01-26T10:38:46.222Z,111.70
2023-01-26T10:41:28.742Z,113.23
2023-01-26T10:43:59.773Z,108.00
2023-01-26T10:46:32.067Z,105.40
2023-01-26T10:49:02.688Z,112.03
2023-01-26T10:51:33.296Z,112.87
2023-01-26T10:54:23.099Z,117.93
2023-01-26T10:56:54.480Z,120.30
2023-01-26T10:59:33.116Z,121.70
2023-01-26T11:02:04.486Z,119.17
2023-01-26T11:04:32.566Z,114.07
2023-01-26T11:07:25.094Z,115.33
2023-01-26T11:09:53.637Z,119.33
2023-01-26T11:12:23.272Z,110.83
2023-01-26T11:15:04.002Z,116.50
2023-01-26T11:17:39.334Z,118.00
2023-01-26T11:20:26.573Z,114.33
2023-01-26T11:23:05.705Z,107.80
2023-01-26T11:25:42.313Z,109.00
2023-01-26T11:28:25.667Z,116.30
2023-01-26T11:31:11.245Z,119.03
2023-01-26T11:33:47.772Z,115.17
2023-01-26T11:36:26.992Z,106.73
2023-01-26T11:39:04.443Z,118.00
2023-01-26T11:41:47.328Z,115.47
2023-01-26T11:44:31.058Z,119.47
2023-01-26T11:47:17.831Z,121.30
2023-01-26T11:50:18.486Z,122.70
2023-01-26T11:52:59.261Z,115.17
2023-01-26T11:55:38.928Z,113.83
2023-01-26T11:58:24.153Z,105.80
2023-01-26T12:00:56.033Z,104.73
2023-01-26T12:03:28.259Z,111.73
2023-01-26T12:06:03.586Z,104.53
2023-01-26T12:08:39.466Z,111.53
2023-01-26T12:11:24.080Z,114.50
2023-01-26T12:14:04.827Z,103.17
2023-01-26T12:16:41.925Z,103.80
2023-01-26T12:19:32.372Z,89.57
2023-01-26T12:22:11.825Z,82.97
2023-01-26T12:25:16.253Z,81.47
2023-01-26T12:27:38.482Z,73.43
2023-01-26T12:30:23.494Z,68.10
2023-01-26T12:32:52.195Z,56.93
2023-01-26T12:35:29.842Z,53.83
2023-01-26T12:38:17.366Z,41.40
2023-01-26T12:40:54.143Z,33.50
2023-01-26T12:43:37.839Z,30.37
2023-01-26T12:46:07.446Z,32.97
2023-01-26T12:48:42.602Z,23.20
2023-01-26T12:51:16.241Z,22.60
2023-01-26T12:53:55.777Z,22.20
2023-01-26T12:56:29.434Z,20.47
2023-01-26T12:58:59.320Z,22.03
2023-01-26T13:01:37.442Z,20.17
2023-01-26T13:04:09.844Z,19.93
2023-01-26T13:06:38.052Z,19.23
2023-01-26T13:09:21.281Z,19.20
2023-01-26T13:11:51.753Z,19.80
2023-01-26T13:14:37.689Z,18.37
2023-01-26T13:17:48.303Z,18.63
2023-01-26T13:20:41.899Z,17.63
2023-01-26T13:23:38.378Z,17.53
2023-01-26T13:26:51.725Z,17.53
2023-01-26T13:29:36.511Z,17.77
2023-01-26T13:32:38.700Z,18.10
2023-01-26T13:35:11.788Z,18.10
2023-01-26T13:37:47.499Z,17.57
2023-01-26T13:40:20.026Z,17.37
2023-01-26T13:42:56.109Z,17.10
2023-01-26T13:45:33.805Z,17.50
2023-01-26T13:48:05.401Z,17.50
2023-01-26T13:50:37.671Z,17.80
2023-01-26T13:53:32.123Z,19.20
2023-01-26T13:56:01.844Z,19.07
2023-01-26T13:58:29.935Z,21.37
2023-01-26T14:01:04.127Z,19.50
2023-01-26T14:03:32.339Z,18.83
2023-01-26T14:06:05.174Z,19.20
2023-01-26T14:08:34.759Z,18.97
2023-01-26T14:11:05.873Z,18.47
2023-01-26T14:13:37.196Z,19.50
2023-01-26T14:16:08.608Z,19.37
2023-01-26T14:18:36.738Z,19.87
2023-01-26T14:21:06.558Z,21.43
2023-01-26T14:23:36.532Z,20.83
2023-01-26T14:26:06.639Z,20.60
2023-01-26T14:28:37.962Z,20.60
2023-01-26T14:31:16.612Z,21.43
2023-01-26T14:33:45.335Z,21.30
2023-01-26T14:36:22.451Z,22.20
2023-01-26T14:38:52.643Z,22.27
2023-01-26T14:41:25.041Z,22.97
2023-01-26T14:43:57.881Z,23.83
2023-01-26T14:46:32.005Z,23.70
2023-01-26T14:49:07.362Z,24.33
2023-01-26T14:51:36.795Z,23.30
2023-01-26T14:54:11.792Z,24.50
2023-01-26T14:56:41.910Z,24.00
2023-01-26T14:59:20.097Z,24.13
2023-01-26T15:01:50.051Z,24.37
2023-01-26T15:04:25.915Z,24.83
2023-01-26T15:06:53.979Z,25.20
2023-01-26T15:09:24.166Z,26.07
2023-01-26T15:12:15.138Z,25.43
2023-01-26T15:14:51.217Z,26.63
2023-01-26T15:17:31.699Z,27.10
2023-01-26T15:19:59.869Z,27.50
2023-01-26T15:22:28.336Z,27.67
2023-01-26T15:25:17.995Z,28.10
2023-01-26T15:27:51.935Z,29.20
2023-01-26T15:30:24.275Z,30.30
2023-01-26T15:32:54.021Z,31.80
2023-01-26T15:35:25.228Z,31.30
2023-01-26T15:38:02.565Z,33.23
2023-01-26T15:40:31.820Z,32.80
2023-01-26T15:43:13.595Z,33.63
2023-01-26T15:45:43.519Z,31.30
2023-01-26T15:48:12.939Z,33.73
2023-01-26T15:50:41.048Z,34.00
2023-01-26T15:53:14.323Z,32.23
2023-01-26T15:55:44.103Z,33.13
2023-01-26T15:58:12.098Z,32.70
2023-01-26T16:00:40.365Z,34.67
2023-01-26T16:03:16.086Z,32.50
2023-01-26T16:05:44.415Z,32.17
2023-01-26T16:08:12.499Z,30.23
2023-01-26T16:10:40.680Z,29.47
2023-01-26T16:13:10.824Z,32.03
2023-01-26T16:15:42.620Z,29.73
2023-01-26T16:18:11.006Z,29.20
2023-01-26T16:20:42.164Z,30.30
2023-01-26T16:23:18.534Z,29.00
2023-01-26T16:25:47.161Z,24.80
2023-01-26T16:28:15.570Z,25.30
2023-01-26T16:30:45.039Z,25.57
2023-01-26T16:33:14.675Z,24.80
2023-01-26T16:35:44.573Z,24.60
2023-01-26T16:38:13.205Z,25.70
2023-01-26T16:40:42.320Z,25.33
2023-01-26T16:43:16.771Z,25.70
2023-01-26T16:45:44.839Z,26.23
2023-01-26T16:48:14.825Z,25.90
2023-01-26T16:50:45.695Z,25.70
2023-01-26T16:53:20.100Z,25.53
2023-01-26T16:55:48.169Z,25.17
2023-01-26T16:58:16.207Z,26.00
2023-01-26T17:00:44.733Z,27.13
2023-01-26T17:03:13.911Z,27.30
2023-01-26T17:05:43.713Z,29.43
2023-01-26T17:08:11.831Z,28.30
2023-01-26T17:10:55.532Z,30.23
2023-01-26T17:13:28.391Z,46.07
2023-01-26T17:15:57.818Z,30.37
2023-01-26T17:18:26.000Z,32.73
2023-01-26T17:20:55.432Z,31.00
2023-01-26T17:23:23.491Z,30.47
2023-01-26T17:25:58.438Z,29.13
2023-01-26T17:28:27.716Z,30.03
2023-01-26T17:30:55.811Z,29.30
2023-01-26T17:33:23.845Z,29.90
2023-01-26T17:36:01.781Z,30.27
2023-01-26T17:38:29.810Z,30.60
2023-01-26T17:40:58.645Z,30.30
2023-01-26T17:43:27.053Z,30.93
2023-01-26T17:46:02.968Z,31.00
2023-01-26T17:48:31.226Z,30.70
2023-01-26T17:50:59.289Z,31.13
2023-01-26T17:53:28.944Z,30.50
2023-01-26T17:55:56.990Z,31.03
2023-01-26T17:58:25.170Z,31.60
2023-01-26T18:00:53.408Z,32.13
2023-01-26T18:03:26.260Z,34.60
2023-01-26T18:05:55.216Z,32.80
2023-01-26T18:08:24.037Z,32.07
2023-01-26T18:10:58.726Z,31.03
2023-01-26T18:13:27.220Z,32.40
2023-01-26T18:15:55.373Z,31.93
2023-01-26T18:18:23.885Z,33.17
2023-01-26T18:20:52.770Z,32.67
2023-01-26T18:23:21.620Z,31.77
2023-01-26T18:25:49.887Z,30.17
2023-01-26T18:28:19.454Z,31.40
2023-01-26T18:30:48.476Z,30.70
2023-01-26T18:33:16.645Z,33.57
2023-01-26T18:35:45.141Z,29.07
2023-01-26T18:38:13.309Z,29.27
2023-01-26T18:40:41.495Z,31.27
2023-01-26T18:43:10.766Z,31.10
2023-01-26T18:45:43.467Z,29.90
2023-01-26T18:48:11.628Z,30.00
2023-01-26T18:50:40.611Z,29.70
2023-01-26T18:53:08.742Z,31.27
2023-01-26T18:55:38.073Z,29.47
2023-01-26T18:58:06.237Z,29.92
2023-01-26T19:00:35.040Z,29.33
2023-01-26T19:03:04.800Z,30.90
2023-01-26T19:05:32.901Z,28.63
2023-01-26T19:08:09.971Z,28.97
2023-01-26T19:10:39.036Z,29.07
2023-01-26T19:13:07.912Z,29.67
2023-01-26T19:15:36.431Z,29.23
2023-01-26T19:18:06.031Z,28.23
2023-01-26T19:20:34.287Z,29.00
2023-01-26T19:23:03.918Z,28.53
2023-01-26T19:25:35.926Z,30.47
2023-01-26T19:28:04.132Z,29.83
2023-01-26T19:30:33.255Z,30.77
2023-01-26T19:33:19.124Z,29.57
2023-01-26T19:35:48.387Z,29.50
2023-01-26T19:38:16.839Z,29.60
2023-01-26T19:40:45.791Z,30.43
2023-01-26T19:43:13.923Z,31.83
2023-01-26T19:45:42.353Z,32.60
2023-01-26T19:48:10.571Z,33.20
2023-01-26T19:50:38.694Z,32.73
2023-01-26T19:53:08.240Z,32.47
2023-01-26T19:55:36.424Z,33.90
2023-01-26T19:58:04.508Z,33.53
2023-01-26T20:00:32.778Z,34.60
2023-01-26T20:03:01.274Z,33.70
2023-01-26T20:05:29.375Z,34.90
2023-01-26T20:07:58.088Z,34.57
2023-01-26T20:10:28.039Z,36.00
2023-01-26T20:12:57.381Z,38.27
2023-01-26T20:15:25.557Z,38.33
2023-01-26T20:17:53.677Z,38.30
2023-01-26T20:20:21.752Z,38.83
2023-01-26T20:22:49.929Z,39.07
2023-01-26T20:25:18.076Z,41.40
2023-01-26T20:27:47.646Z,41.40
2023-01-26T20:30:16.845Z,39.87
2023-01-26T20:32:45.216Z,40.33
2023-01-26T20:35:14.716Z,40.57
2023-01-26T20:37:43.042Z,40.07
2023-01-26T20:40:12.808Z,40.93
2023-01-26T20:42:41.049Z,42.70
2023-01-26T20:45:12.182Z,43.20
2023-01-26T20:47:40.453Z,45.17
2023-01-26T20:50:10.363Z,45.27
2023-01-26T20:52:39.337Z,45.73
2023-01-26T20:55:08.270Z,48.23
2023-01-26T20:57:36.640Z,47.53
2023-01-26T21:00:05.554Z,48.67
2023-01-26T21:02:35.191Z,50.77
2023-01-26T21:05:03.555Z,52.70
2023-01-26T21:07:31.594Z,57.42
2023-01-26T21:09:59.663Z,57.40
2023-01-26T21:12:28.114Z,54.93
2023-01-26T21:14:56.137Z,57.37
2023-01-26T21:17:24.474Z,56.30
2023-01-26T21:19:53.955Z,53.90
2023-01-26T21:22:22.005Z,53.47
2023-01-26T21:24:50.071Z,54.43
2023-01-26T21:27:18.340Z,55.20
2023-01-26T21:29:46.424Z,56.60
2023-01-26T21:32:15.688Z,59.00
2023-01-26T21:34:43.996Z,43.63
2023-01-26T21:37:13.422Z,45.23
2023-01-26T21:39:41.485Z,46.27
2023-01-26T21:42:09.550Z,48.60
2023-01-26T21:44:57.720Z,48.70
2023-01-26T21:47:25.736Z,50.57
2023-01-26T21:49:53.865Z,51.07
2023-01-26T21:52:40.876Z,53.37
2023-01-26T21:55:09.555Z,52.63
2023-01-26T21:57:55.195Z,56.13
2023-01-26T22:00:23.515Z,58.60
2023-01-26T22:02:51.547Z,59.80
2023-01-26T22:05:19.647Z,59.17
2023-01-26T22:07:49.093Z,60.07
2023-01-26T22:10:18.014Z,59.93
2023-01-26T22:12:46.134Z,61.73
2023-01-26T22:15:14.392Z,62.30
2023-01-26T22:17:42.435Z,64.37
2023-01-26T22:20:12.184Z,64.60
2023-01-26T22:22:40.432Z,66.00
2023-01-26T22:25:10.736Z,68.67
2023-01-26T22:27:40.891Z,70.50
2023-01-26T22:30:10.638Z,73.00
2023-01-26T22:32:38.677Z,73.00
2023-01-26T22:35:07.258Z,79.30
2023-01-26T22:37:35.335Z,75.70
2023-01-26T22:40:03.415Z,76.53
2023-01-26T22:42:32.972Z,76.87
2023-01-26T22:45:01.078Z,76.90
2023-01-26T22:47:29.256Z,80.70
2023-01-26T22:49:57.432Z,81.13
2023-01-26T22:52:25.589Z,77.50
2023-01-26T22:54:53.940Z,76.43
2023-01-26T22:57:22.079Z,77.30
2023-01-26T22:59:51.476Z,79.43
2023-01-26T23:02:19.714Z,77.60
2023-01-26T23:04:47.805Z,77.80
2023-01-26T23:07:15.912Z,75.80
2023-01-26T23:09:43.953Z,68.30
2023-01-26T23:12:12.023Z,71.73
2023-01-26T23:14:40.103Z,71.87
2023-01-26T23:17:09.518Z,71.00
2023-01-26T23:19:37.584Z,72.67
2023-01-26T23:22:05.858Z,72.00
2023-01-26T23:24:33.978Z,72.63
2023-01-26T23:27:02.082Z,72.77
2023-01-26T23:29:30.194Z,76.17
2023-01-26T23:31:58.320Z,73.43
2023-01-26T23:34:27.768Z,72.97
2023-01-26T23:36:55.800Z,72.47
2023-01-26T23:39:23.862Z,73.77
2023-01-26T23:41:51.929Z,71.03
2023-01-26T23:44:20.035Z,67.30
2023-01-26T23:46:48.122Z,64.20
2023-01-26T23:49:16.709Z,59.93
2023-01-26T23:51:46.093Z,54.47
2023-01-26T23:54:14.146Z,52.63
2023-01-26T23:56:42.220Z,52.27
2023-01-26T23:59:10.840Z,52.00
